Data for 04/05/2008

Time Sea-Level Adjusted Pressure Absolute Pressure Temperature Relative Humidity Dew Point   
(mb) (inHg) (mb) (inHg) (C) (F) (%) (C) (F)
00:05 1007 29.74 836 24.69 4 39.3 65 -2 28.5
00:10 1007 29.74 837 24.72 4 39.2 66 -1.9 28.6
00:15 1007 29.74 837 24.72 3.9 39.1 67 -1.7 29
00:20 1007 29.74 837 24.72 3.8 38.9 68 -1.4 29.4
00:25 1007 29.74 837 24.72 3.6 38.4 70 -1.3 29.6
00:30 1007 29.74 837 24.72 3.2 37.8 73 -1.2 29.8
00:35 1008 29.77 837 24.72 2.8 37.1 75 -1.1 30
00:40 1008 29.77 837 24.72 2.4 36.4 78 -1 30.1
00:45 1008 29.77 837 24.72 2.2 35.9 81 -0.8 30.5
00:50 1008 29.77 837 24.72 1.9 35.3 83 -0.8 30.6
00:55 1008 29.77 837 24.72 1.7 35 84 -0.8 30.6
01:00 1008 29.77 837 24.72 1.6 34.8 85 -0.8 30.6
01:05 1008 29.77 837 24.72 1.5 34.7 86 -0.6 30.9
01:10 1008 29.77 837 24.72 1.3 34.3 88 -0.5 31.1
01:15 1007 29.74 837 24.72 1 33.9 90 -0.5 31.2
01:20 1007 29.74 836 24.69 1.1 33.9 91 -0.2 31.6
01:25 1007 29.74 836 24.69 0.9 33.7 92 -0.2 31.6
01:30 1007 29.74 836 24.69 0.7 33.3 93 -0.3 31.5
01:35 1007 29.74 836 24.69 0.7 33.2 93 -0.3 31.5
01:40 1006 29.71 836 24.69 0.6 33.1 93 -0.4 31.4
01:45 1006 29.71 836 24.69 0.7 33.2 93 -0.4 31.4
01:50 1006 29.71 835 24.66 0.7 33.2 93 -0.3 31.4
01:55 1006 29.71 835 24.66 0.5 32.9 94 -0.3 31.4
02:00 1006 29.71 835 24.66 0.4 32.7 95 -0.4 31.3
02:05 1006 29.71 835 24.66 0.3 32.6 95 -0.4 31.3
02:10 1006 29.71 835 24.66 0.3 32.5 95 -0.5 31.2
02:15 1006 29.71 835 24.66 0.3 32.5 94 -0.5 31
02:20 1006 29.71 835 24.66 0.3 32.6 94 -0.6 31
02:25 1006 29.71 835 24.66 0.3 32.5 94 -0.6 30.9
02:30 1006 29.71 835 24.66 0.2 32.4 93 -0.7 30.7
02:35 1006 29.71 835 24.66 0.3 32.5 93 -0.7 30.7
02:40 1006 29.71 835 24.66 0.7 33.2 90 -0.8 30.5
02:45 1006 29.71 835 24.66 1.2 34.1 88 -0.7 30.8
02:50 1006 29.71 835 24.66 1 33.8 87 -0.9 30.4
02:55 1006 29.71 835 24.66 0.9 33.6 87 -1 30.2
03:00 1006 29.71 835 24.66 0.9 33.7 86 -1.1 30
03:05 1006 29.71 835 24.66 1.2 34.1 86 -0.9 30.3
03:10 1006 29.71 835 24.66 1 33.9 82 -1.8 28.8
03:15 1006 29.71 835 24.66 1.7 35 77 -2 28.5
03:20 1006 29.71 835 24.66 1.9 35.4 75 -2.1 28.3
03:25 1006 29.71 835 24.66 1.9 35.5 73 -2.3 27.8
03:30 1006 29.71 835 24.66 2.1 35.7 73 -2.4 27.7
03:35 1006 29.71 835 24.66 2.3 36.1 65 -3.6 25.5
03:40 1006 29.71 835 24.66 2.7 36.9 63 -3.7 25.4
03:45 1006 29.71 835 24.66 2.7 36.9 64 -3.4 25.9
03:50 1006 29.71 835 24.66 2.5 36.5 68 -2.7 27.1
03:55 1006 29.71 836 24.69 2.1 35.8 73 -2.3 27.8
04:00 1006 29.71 836 24.69 1.7 35 77 -2 28.4
04:05 1006 29.71 836 24.69 1.4 34.5 79 -1.8 28.7
04:10 1006 29.71 836 24.69 1.2 34.1 81 -1.7 28.9
04:15 1007 29.74 836 24.69 1.1 34 83 -1.5 29.3
04:20 1007 29.74 836 24.69 1 33.7 84 -1.4 29.5
04:25 1007 29.74 836 24.69 0.8 33.4 86 -1.3 29.7
04:30 1007 29.74 836 24.69 0.6 33.1 88 -1.2 29.9
04:35 1007 29.74 836 24.69 0.4 32.6 90 -1.1 30
04:40 1007 29.74 836 24.69 0.2 32.4 91 -1.1 30
04:45 1007 29.74 836 24.69 0.2 32.3 91 -1 30.1
04:50 1007 29.74 836 24.69 0.2 32.4 91 -1 30.1
04:55 1007 29.74 836 24.69 0.2 32.4 91 -1.1 30.1
05:00 1007 29.74 836 24.69 0.2 32.3 91 -1.2 29.9
05:05 1007 29.74 836 24.69 0.1 32.2 89 -1.4 29.4
05:10 1007 29.74 836 24.69 0 32 88 -1.8 28.8
05:15 1007 29.74 836 24.69 -0.1 31.9 87 -1.9 28.5
05:20 1007 29.74 836 24.69 -0.1 31.8 87 -2 28.4
05:25 1007 29.74 836 24.69 -0.2 31.7 88 -2 28.5
05:30 1007 29.74 836 24.69 -0.4 31.3 89 -2 28.3
05:35 1007 29.74 836 24.69 -0.6 30.9 90 -2.1 28.2
05:40 1007 29.74 836 24.69 -0.7 30.7 90 -2.1 28.2
05:45 1007 29.74 836 24.69 -0.8 30.5 91 -2.1 28.3
05:50 1007 29.74 836 24.69 -0.8 30.6 92 -2 28.4
05:55 1007 29.74 836 24.69 -0.9 30.5 92 -1.9 28.5
06:00 1007 29.74 836 24.69 -0.9 30.4 93 -1.9 28.6
06:05 1007 29.74 836 24.69 -1 30.1 93 -2 28.3
06:10 1007 29.74 836 24.69 -1.2 29.8 93 -2.1 28.2
06:15 1007 29.74 836 24.69 -1.3 29.6 94 -2.2 28.1
06:20 1007 29.74 836 24.69 -1.5 29.4 94 -2.3 27.9
06:25 1007 29.74 836 24.69 -1.7 29 94 -2.5 27.5
06:30 1007 29.74 836 24.69 -1.9 28.7 94 -2.7 27.2
06:35 1007 29.74 836 24.69 -1.9 28.5 94 -2.8 27
06:40 1007 29.74 837 24.72 -2.1 28.2 94 -2.9 26.8
06:45 1007 29.74 837 24.72 -2.3 27.8 95 -3 26.7
06:50 1008 29.77 837 24.72 -2.4 27.6 96 -3 26.5
06:55 1008 29.77 837 24.72 -2.6 27.2 97 -3.1 26.4
07:00 1008 29.77 837 24.72 -2.7 27.2 97 -3.1 26.5
07:05 1008 29.77 837 24.72 -2.7 27.2 98 -3 26.6
07:10 1008 29.77 837 24.72 -2.7 27.2 98 -2.9 26.7
07:15 1008 29.77 837 24.72 -2.6 27.2 98 -2.9 26.8
07:20 1008 29.77 837 24.72 -2.8 27 98 -3 26.6
07:25 1008 29.77 837 24.72 -2.8 27 98 -3.1 26.5
07:30 1008 29.77 837 24.72 -2.8 27 98 -3 26.5
07:35 1008 29.77 837 24.72 -2.7 27.1 98 -3 26.6
07:40 1008 29.77 837 24.72 -2.7 27.2 98 -3 26.7
07:45 1008 29.77 837 24.72 -2.6 27.4 98 -2.9 26.8
07:50 1008 29.77 837 24.72 -2.5 27.6 98 -2.8 27
07:55 1008 29.77 837 24.72 -2.7 27.2 97 -3 26.6
08:00 1008 29.77 837 24.72 -2.9 26.8 98 -3.2 26.2
08:05 1008 29.77 837 24.72 -3 26.6 98 -3.3 26.1
08:10 1008 29.77 837 24.72 -2.9 26.9 97 -3.2 26.2
08:15 1008 29.77 837 24.72 -2.8 27 98 -3.1 26.4
08:20 1008 29.77 837 24.72 -2.4 27.6 97 -2.8 27
08:25 1008 29.77 837 24.72 -2.1 28.2 97 -2.5 27.4
08:30 1008 29.77 837 24.72 -1.6 29 96 -2.2 28
08:35 1008 29.77 837 24.72 -1.1 30 94 -1.9 28.6
08:40 1008 29.77 837 24.72 -0.7 30.7 93 -1.7 28.9
08:45 1008 29.77 837 24.72 -0.2 31.7 90 -1.7 29
08:50 1008 29.77 837 24.72 -0.3 31.4 88 -2.1 28.2
08:55 1008 29.77 837 24.72 -0.9 30.4 79 -4.1 24.7
09:00 1008 29.77 837 24.72 -1 30.3 76 -4.8 23.4
09:05 1008 29.77 837 24.72 -0.3 31.4 73 -4.6 23.7
09:10 1008 29.77 837 24.72 0 32 67 -5.4 22.2
09:15 1008 29.77 837 24.72 0.1 32.2 63 -6.1 21
09:20 1008 29.77 837 24.72 0 32.1 55 -7.9 17.9
09:25 1008 29.77 837 24.72 -0 31.9 52 -8.7 16.4
09:30 1008 29.77 837 24.72 0.1 32.2 49 -9.3 15.3
09:35 1008 29.77 837 24.72 0.2 32.4 46 -10 14
09:40 1008 29.77 837 24.72 0.1 32.2 46 -10.1 13.8
09:45 1008 29.77 837 24.72 0.2 32.4 44 -10.7 12.8
09:50 1008 29.77 837 24.72 0.4 32.7 42 -11.1 12
09:55 1008 29.77 837 24.72 0.4 32.7 42 -11.1 12.1
10:00 1008 29.77 837 24.72 0.5 32.8 42 -11 12.1
10:05 1008 29.77 837 24.72 0.4 32.8 42 -11 12.1
10:10 1008 29.77 837 24.72 0.5 32.8 43 -10.7 12.7
10:15 1008 29.77 837 24.72 0.8 33.4 42 -10.8 12.6
10:20 1008 29.77 838 24.75 0.9 33.6 42 -10.7 12.7
10:25 1008 29.77 838 24.75 1.6 34.9 42 -10.1 13.8
10:30 1008 29.77 838 24.75 2 35.6 41 -9.9 14.2
10:35 1008 29.77 838 24.75 1.7 35 41 -10.1 13.8
10:40 1008 29.77 838 24.75 0.7 33.3 48 -8.9 15.9
10:45 1009 29.8 838 24.75 -0.3 31.5 63 -6.4 20.5
10:50 1009 29.8 838 24.75 -0.9 30.3 70 -5.8 21.6
10:55 1009 29.8 838 24.75 -1 30.1 71 -5.6 21.9
11:00 1009 29.8 838 24.75 -0.9 30.3 69 -5.9 21.3
11:05 1009 29.8 838 24.75 -1.1 29.9 70 -6 21.3
11:10 1009 29.8 838 24.75 -2 28.5 75 -5.8 21.5
11:15 1009 29.8 838 24.75 -2.5 27.4 79 -5.6 21.9
11:20 1009 29.8 838 24.75 -2.5 27.5 83 -5 22.9
11:25 1009 29.8 838 24.75 -2.6 27.4 85 -4.7 23.5
11:30 1009 29.8 838 24.75 -2.4 27.7 84 -4.7 23.6
11:35 1009 29.8 838 24.75 -2.1 28.1 84 -4.5 23.9
11:40 1009 29.8 838 24.75 -2.1 28.2 84 -4.5 24
11:45 1009 29.8 838 24.75 -1.9 28.5 83 -4.5 23.9
11:50 1009 29.8 838 24.75 -2 28.4 82 -4.7 23.6
11:55 1009 29.8 838 24.75 -1.9 28.6 82 -4.6 23.7
12:00 1009 29.8 838 24.75 -1.5 29.3 80 -4.5 23.8
12:05 1009 29.8 838 24.75 -1.2 29.8 77 -4.8 23.3
12:10 1009 29.8 838 24.75 -1.2 29.8 73 -5.4 22.3
12:15 1009 29.8 838 24.75 -1 30.2 72 -5.5 22.1
12:20 1009 29.8 838 24.75 -1 30.2 71 -5.6 21.9
12:25 1009 29.8 838 24.75 -0.9 30.4 71 -5.5 22.1
12:30 1009 29.8 838 24.75 -0.8 30.6 70 -5.6 22
12:35 1009 29.8 838 24.75 -0.6 30.9 69 -5.7 21.8
12:40 1009 29.8 838 24.75 -0.4 31.3 67 -5.7 21.7
12:45 1009 29.8 838 24.75 -0.4 31.2 69 -5.4 22.2
12:50 1009 29.8 838 24.75 -0.3 31.5 70 -5.1 22.8
12:55 1009 29.8 838 24.75 -0.3 31.5 70 -5.1 22.8
13:00 1009 29.8 838 24.75 -0.7 30.7 71 -5.3 22.4
13:05 1009 29.8 838 24.75 -1 30.2 72 -5.4 22.3
13:10 1009 29.8 838 24.75 -0.6 30.9 71 -5.3 22.4
13:15 1009 29.8 838 24.75 -0.4 31.2 69 -5.4 22.3
13:20 1009 29.8 838 24.75 -0.5 31 70 -5.3 22.5
13:25 1009 29.8 838 24.75 -0.2 31.6 68 -5.4 22.2
13:30 1009 29.8 838 24.75 -0.2 31.7 70 -5 22.9
13:35 1009 29.8 838 24.75 -0.3 31.5 68 -5.5 22.1
13:40 1009 29.8 838 24.75 -0.3 31.4 69 -5.3 22.5
13:45 1009 29.8 838 24.75 -0.3 31.4 70 -5.1 22.9
13:50 1009 29.8 838 24.75 -0.2 31.6 68 -5.4 22.4
13:55 1009 29.8 838 24.75 -0.2 31.7 68 -5.3 22.5
14:00 1009 29.8 838 24.75 -0.3 31.5 70 -5.1 22.8
14:05 1009 29.8 838 24.75 -0.3 31.4 71 -5 22.9
14:10 1009 29.8 838 24.75 -0.2 31.6 73 -4.5 23.8
14:15 1009 29.8 838 24.75 -0.2 31.6 73 -4.4 24
14:20 1009 29.8 839 24.78 -0 31.9 74 -4.1 24.7
14:25 1009 29.8 839 24.78 0.1 32.1 76 -3.6 25.5
14:30 1009 29.8 839 24.78 -0.3 31.5 78 -3.6 25.6
14:35 1009 29.8 839 24.78 -0.4 31.3 80 -3.5 25.8
14:40 1009 29.8 839 24.78 -0.5 31.1 81 -3.4 25.8
14:45 1009 29.8 839 24.78 -0.6 30.9 83 -3.1 26.4
14:50 1009 29.8 839 24.78 -0.7 30.8 85 -2.9 26.8
14:55 1010 29.83 839 24.78 -0.8 30.6 87 -2.7 27.1
15:00 1010 29.83 839 24.78 -0.9 30.4 87 -2.7 27.1
15:05 1010 29.83 839 24.78 -1.1 30 89 -2.6 27.3
15:10 1010 29.83 839 24.78 -1.1 30 91 -2.4 27.6
15:15 1010 29.83 839 24.78 -1.2 29.8 92 -2.4 27.7
15:20 1010 29.83 839 24.78 -1.3 29.6 93 -2.4 27.8
15:25 1010 29.83 839 24.78 -1.2 29.8 93 -2.1 28.2
15:30 1010 29.83 839 24.78 -1.1 30 94 -2 28.4
15:35 1010 29.83 839 24.78 -1.2 29.8 94 -2 28.3
15:40 1010 29.83 839 24.78 -1.4 29.4 95 -2.1 28.2
15:45 1010 29.83 839 24.78 -1.6 29.2 96 -2.1 28.1
15:50 1010 29.83 839 24.78 -1.6 29.1 96 -2.1 28.2
15:55 1010 29.83 839 24.78 -1.6 29.1 97 -2.1 28.2
16:00 1010 29.83 839 24.78 -1.6 29 97 -2.1 28.2
16:05 1010 29.83 839 24.78 -1.7 28.9 97 -2.2 28.1
16:10 1010 29.83 839 24.78 -1.7 29 97 -2 28.3
16:15 1010 29.83 839 24.78 -1.6 29.2 97 -2 28.5
16:20 1010 29.83 839 24.78 -1.7 29 98 -2 28.4
16:25 1010 29.83 839 24.78 -1.6 29.1 98 -1.9 28.5
16:30 1010 29.83 839 24.78 -1.6 29.2 98 -1.8 28.7
16:35 1010 29.83 839 24.78 -1.4 29.4 98 -1.7 28.9
16:40 1010 29.83 839 24.78 -1.3 29.7 98 -1.5 29.2
16:45 1010 29.83 839 24.78 -1.1 29.9 98 -1.4 29.4
16:50 1010 29.83 839 24.78 -1.2 29.8 98 -1.5 29.3
16:55 1010 29.83 839 24.78 -1.3 29.6 98 -1.6 29.2
17:00 1010 29.83 839 24.78 -1.4 29.5 98 -1.6 29.1
17:05 1010 29.83 839 24.78 -1.3 29.6 98 -1.6 29.1
17:10 1010 29.83 840 24.81 -1.3 29.7 99 -1.5 29.3
17:15 1010 29.83 840 24.81 -1.1 30.1 98 -1.3 29.7
17:20 1010 29.83 840 24.81 -1 30.2 98 -1.3 29.7
17:25 1010 29.83 840 24.81 -1.1 30 98 -1.4 29.5
17:30 1010 29.83 840 24.81 -1.3 29.7 98 -1.6 29.2
17:35 1010 29.83 840 24.81 -1.1 30 98 -1.3 29.6
17:40 1010 29.83 840 24.81 -0.8 30.6 98 -1.1 30.1
17:45 1010 29.83 840 24.81 -0.8 30.7 98 -1.1 30.1
17:50 1011 29.85 840 24.81 -0.8 30.6 98 -1.1 30
17:55 1011 29.85 840 24.81 -0.8 30.6 111 0.6 33.1
18:00 1011 29.85 840 24.81 -0.8 30.5 112 0.7 33.3
18:05 1011 29.85 840 24.81 -0.8 30.6 113 0.9 33.6
18:10 1011 29.85 840 24.81 -0.6 30.9 113 1.1 34
18:15 1011 29.85 840 24.81 -0.5 31.1 113 1.2 34.2
18:20 1011 29.85 840 24.81 -0.4 31.2 113 1.3 34.3
18:25 1011 29.85 840 24.81 -0.5 31.2 113 1.3 34.3
18:30 1011 29.85 840 24.81 -0.4 31.2 113 1.3 34.3
18:35 1011 29.85 840 24.81 -0.5 31.1 113 1.1 34.1
18:40 1011 29.85 840 24.81 -0.7 30.7 112 0.8 33.5
18:45 1011 29.85 840 24.81 -0.9 30.3 113 0.7 33.3
18:50 1011 29.85 840 24.81 -0.9 30.4 113 0.7 33.3
18:55 1011 29.85 840 24.81 -1 30.3 112 0.6 33.1
19:00 1011 29.85 840 24.81 -1.3 29.6 113 0.3 32.6
19:05 1011 29.85 840 24.81 -1.3 29.6 113 0.4 32.7
19:10 1011 29.85 840 24.81 -1.4 29.4 113 0.2 32.4
19:15 1011 29.85 840 24.81 -1.5 29.3 114 0.3 32.5
19:20 1011 29.85 840 24.81 -1.4 29.5 114 0.4 32.7
19:25 1011 29.85 840 24.81 -1.3 29.7 114 0.5 32.9
19:30 1011 29.85 840 24.81 -1.2 29.9 113 0.5 33
19:35 1011 29.85 840 24.81 -1.2 29.8 113 0.5 32.9
19:40 1011 29.85 840 24.81 -1.3 29.6 113 0.4 32.7
19:45 1011 29.85 840 24.81 -1.5 29.2 113 0.1 32.2
19:50 1011 29.85 840 24.81 -1.7 29 114 0.1 32.2
19:55 1011 29.85 840 24.81 -1.6 29.1 114 0.2 32.4
20:00 1011 29.85 840 24.81 -1.5 29.2 114 0.3 32.5
20:05 1011 29.85 840 24.81 -1.5 29.3 114 0.3 32.6
20:10 1011 29.85 840 24.81 -1.6 29.2 115 0.3 32.5
20:15 1011 29.85 840 24.81 -1.5 29.3 115 0.4 32.7
20:20 1011 29.85 840 24.81 -1.5 29.4 115 0.5 32.8
20:25 1011 29.85 841 24.83 -1.4 29.5 115 0.6 33
20:30 1011 29.85 841 24.83 -1.4 29.4 115 0.5 32.9
20:35 1011 29.85 841 24.83 -1.6 29.1 115 0.3 32.6
20:40 1011 29.85 841 24.83 -1.7 29 116 0.3 32.6
20:45 1012 29.88 841 24.83 -1.7 28.9 116 0.3 32.6
20:50 1012 29.88 841 24.83 -1.7 28.9 117 0.4 32.7
20:55 1012 29.88 841 24.83 -1.7 28.9 117 0.5 32.8
21:00 1012 29.88 841 24.83 -1.7 28.9 118 0.5 32.8
21:05 1012 29.88 841 24.83 -1.8 28.8 118 0.5 32.8
21:10 1012 29.88 841 24.83 -1.9 28.6 119 0.5 32.8
21:15 1012 29.88 841 24.83 -2 28.5 120 0.5 32.9
21:20 1012 29.88 841 24.83 -2 28.5 121 0.6 33.1
21:25 1012 29.88 841 24.83 -1.8 28.7 122 0.9 33.6
21:30 1012 29.88 841 24.83 -1.8 28.8 123 1 33.9
21:35 1012 29.88 841 24.83 -1.7 28.9 124 1.2 34.2
21:40 1012 29.88 841 24.83 -1.5 29.3 125 1.6 34.9
21:45 1012 29.88 842 24.86 -1.3 29.6 127 2 35.6
21:50 1012 29.88 842 24.86 -1.3 29.7 129 2.3 36.1
21:55 1012 29.88 842 24.86 -1.2 29.8 136 3 37.4
22:00 1012 29.88 842 24.86 -1.2 29.8 140 3.5 38.3
22:05 1012 29.88 842 24.86 -1.3 29.7 164 5.7 42.2
22:10 1012 29.88 842 24.86 -1.4 29.4 164 5.5 41.9
22:15 1012 29.88 842 24.86 -1.6 29.2 164 5.4 41.6
22:20 1013 29.91 842 24.86 -1.7 29 164 5.2 41.4
22:25 1013 29.91 842 24.86 -1.7 28.9 164 5.2 41.3
22:30 1013 29.91 842 24.86 -1.7 28.9 164 5.2 41.3
22:35 1013 29.91 842 24.86 -1.7 29 164 5.3 41.5
22:40 1013 29.91 842 24.86 -1.6 29 164 5.3 41.5
22:45 1013 29.91 842 24.86 -1.7 29 164 5.2 41.4
22:50 1013 29.91 842 24.86 -1.6 29 164 5.3 41.5
22:55 1013 29.91 842 24.86 -1.7 29 164 5.3 41.5
23:00 1013 29.91 842 24.86 -1.7 28.9 164 5.2 41.3
23:05 1013 29.91 842 24.86 -1.8 28.8 164 5.1 41.3
23:10 1013 29.91 842 24.86 -1.8 28.8 164 5.1 41.2
23:15 1013 29.91 842 24.86 -1.9 28.6 164 5.1 41.1
23:20 1013 29.91 842 24.86 -1.8 28.8 164 5.1 41.2
23:25 1013 29.91 842 24.86 -1.8 28.8 164 5.1 41.2
23:30 1013 29.91 842 24.86 -1.8 28.8 164 5.1 41.2
23:35 1013 29.91 842 24.86 -1.8 28.7 164 5.1 41.1
23:40 1013 29.91 842 24.86 -1.9 28.5 164 5 41
23:45 1013 29.91 842 24.86 -2 28.3 164 4.9 40.8
23:50 1013 29.91 842 24.86 -2.1 28.3 164 4.9 40.7
23:55 1013 29.91 842 24.86 -2 28.4 164 4.9 40.8
24:00 1013 29.91 842 24.86 -2 28.4 164 4.9 40.9